createdAt,value
2022-12-22T00:03:06.406Z,28.50
2022-12-22T00:05:54.191Z,25.60
2022-12-22T00:08:41.068Z,25.70
2022-12-22T00:11:31.750Z,27.10
2022-12-22T00:14:18.670Z,32.40
2022-12-22T00:17:05.989Z,33.90
2022-12-22T00:19:53.264Z,30.90
2022-12-22T00:22:44.113Z,26.40
2022-12-22T00:25:36.117Z,26.50
2022-12-22T00:28:33.122Z,26.40
2022-12-22T00:31:20.679Z,27.00
2022-12-22T00:34:07.744Z,27.50
2022-12-22T00:36:56.485Z,27.70
2022-12-22T00:39:44.329Z,27.40
2022-12-22T00:42:31.317Z,28.30
2022-12-22T00:45:18.226Z,27.80
2022-12-22T00:48:05.607Z,26.30
2022-12-22T00:50:54.971Z,27.40
2022-12-22T00:53:42.480Z,27.90
2022-12-22T00:56:30.133Z,25.80
2022-12-22T00:59:19.569Z,30.00
2022-12-22T01:02:06.796Z,25.00
2022-12-22T01:04:54.114Z,27.30
2022-12-22T01:07:44.860Z,20.90
2022-12-22T01:10:34.389Z,22.50
2022-12-22T01:13:21.871Z,24.00
2022-12-22T01:16:08.849Z,25.20
2022-12-22T01:18:56.055Z,24.80
2022-12-22T01:21:43.429Z,25.30
2022-12-22T01:24:35.831Z,23.70
2022-12-22T01:27:23.278Z,22.10
2022-12-22T01:30:10.510Z,26.00
2022-12-22T01:32:57.847Z,26.30
2022-12-22T01:35:50.237Z,26.30
2022-12-22T01:38:37.103Z,24.10
2022-12-22T01:41:28.598Z,24.20
2022-12-22T01:44:15.744Z,25.20
2022-12-22T01:47:05.468Z,25.20
2022-12-22T01:50:03.220Z,22.40
2022-12-22T01:52:53.829Z,23.90
2022-12-22T01:55:43.956Z,25.00
2022-12-22T01:58:43.679Z,25.80
2022-12-22T02:01:31.044Z,23.30
2022-12-22T02:05:01.677Z,25.50
2022-12-22T02:08:13.920Z,24.60
2022-12-22T02:11:22.908Z,26.50
2022-12-22T02:14:10.212Z,26.30
2022-12-22T02:17:21.466Z,24.60
2022-12-22T02:20:59.471Z,29.30
2022-12-22T02:24:04.775Z,26.90
2022-12-22T02:27:04.206Z,23.20
2022-12-22T02:30:07.335Z,25.50
2022-12-22T02:33:07.090Z,21.10
2022-12-22T02:36:09.819Z,22.10
2022-12-22T02:39:18.310Z,21.60
2022-12-22T02:42:31.938Z,26.20
2022-12-22T02:45:19.040Z,23.40
2022-12-22T02:48:38.322Z,22.10
2022-12-22T02:51:30.884Z,20.60
2022-12-22T02:54:18.899Z,19.80
2022-12-22T02:57:06.675Z,22.70
2022-12-22T02:59:53.943Z,21.40
2022-12-22T03:02:59.266Z,21.80
2022-12-22T03:05:46.324Z,19.90
2022-12-22T03:08:33.502Z,23.30
2022-12-22T03:11:20.724Z,23.00
2022-12-22T03:14:07.583Z,24.50
2022-12-22T03:16:54.603Z,23.00
2022-12-22T03:19:41.656Z,19.60
2022-12-22T03:22:28.671Z,21.60
2022-12-22T03:25:15.775Z,20.00
2022-12-22T03:27:44.016Z,19.80
2022-12-22T03:30:12.556Z,21.40
2022-12-22T03:32:40.866Z,19.40
2022-12-22T03:35:09.628Z,17.90
2022-12-22T03:37:38.676Z,19.30
2022-12-22T03:40:08.138Z,18.50
2022-12-22T03:42:55.149Z,19.40
2022-12-22T03:45:42.647Z,17.70
2022-12-22T03:48:11.021Z,17.20
2022-12-22T03:50:39.588Z,16.60
2022-12-22T03:53:08.112Z,18.40
2022-12-22T03:55:36.379Z,21.20
2022-12-22T03:58:04.807Z,17.80
2022-12-22T04:00:33.297Z,19.80
2022-12-22T04:03:01.899Z,20.30
2022-12-22T04:05:30.327Z,19.10
2022-12-22T04:07:58.793Z,21.30
2022-12-22T04:10:45.823Z,19.80
2022-12-22T04:13:14.303Z,20.40
2022-12-22T04:15:42.592Z,18.90
2022-12-22T04:18:11.002Z,16.80
2022-12-22T04:20:39.397Z,16.80
2022-12-22T04:23:07.787Z,18.00
2022-12-22T04:25:36.223Z,16.70
2022-12-22T04:28:04.619Z,18.10
2022-12-22T04:30:33.008Z,19.70
2022-12-22T04:33:01.372Z,22.00
2022-12-22T04:35:30.017Z,20.40
2022-12-22T04:37:58.286Z,21.90
2022-12-22T04:40:26.849Z,19.50
2022-12-22T04:42:55.199Z,24.30
2022-12-22T04:45:23.537Z,18.50
2022-12-22T04:47:51.811Z,20.20
2022-12-22T04:50:20.240Z,18.00
2022-12-22T04:52:48.589Z,19.30
2022-12-22T04:55:16.962Z,19.40
2022-12-22T04:57:45.304Z,18.30
2022-12-22T05:00:14.334Z,19.20
2022-12-22T05:02:43.055Z,18.20
2022-12-22T05:05:11.526Z,18.70
2022-12-22T05:07:39.858Z,19.60
2022-12-22T05:10:09.141Z,15.90
2022-12-22T05:12:56.029Z,19.10
2022-12-22T05:15:36.012Z,19.00
2022-12-22T05:18:05.353Z,15.50
2022-12-22T05:20:36.359Z,18.90
2022-12-22T05:23:04.751Z,18.00
2022-12-22T05:25:35.393Z,16.40
2022-12-22T05:28:04.276Z,17.60
2022-12-22T05:30:32.691Z,16.00
2022-12-22T05:33:01.022Z,16.00
2022-12-22T05:35:29.409Z,19.40
2022-12-22T05:37:57.928Z,17.70
2022-12-22T05:40:26.492Z,22.00
2022-12-22T05:42:54.882Z,16.90
2022-12-22T05:45:23.590Z,18.70
2022-12-22T05:47:53.549Z,15.70
2022-12-22T05:50:25.132Z,15.80
2022-12-22T05:52:55.239Z,19.20
2022-12-22T05:55:23.633Z,18.20
2022-12-22T05:57:52.099Z,17.40
2022-12-22T06:00:21.521Z,16.60
2022-12-22T06:02:52.106Z,17.40
2022-12-22T06:05:21.121Z,16.30
2022-12-22T06:07:49.998Z,14.70
2022-12-22T06:10:18.523Z,16.40
2022-12-22T06:12:47.136Z,15.90
2022-12-22T06:15:15.971Z,17.20
2022-12-22T06:17:45.471Z,18.00
2022-12-22T06:20:15.164Z,17.10
2022-12-22T06:22:43.630Z,17.60
2022-12-22T06:25:17.774Z,15.80
2022-12-22T06:27:48.002Z,18.20
2022-12-22T06:30:17.122Z,16.10
2022-12-22T06:32:45.495Z,14.20
2022-12-22T06:35:14.839Z,16.10
2022-12-22T06:37:43.160Z,15.60
2022-12-22T06:40:12.093Z,19.10
2022-12-22T06:43:05.850Z,17.50
2022-12-22T06:45:39.552Z,20.50
2022-12-22T06:48:09.556Z,15.80
2022-12-22T06:50:38.416Z,16.30
2022-12-22T06:53:06.831Z,16.20
2022-12-22T06:55:35.987Z,16.40
2022-12-22T06:58:05.189Z,16.50
2022-12-22T07:00:34.895Z,14.50
2022-12-22T07:03:17.546Z,15.40
2022-12-22T07:05:46.294Z,13.70
2022-12-22T07:08:14.726Z,11.30
2022-12-22T07:10:58.186Z,12.90
2022-12-22T07:13:34.359Z,14.60
2022-12-22T07:16:05.751Z,14.60
2022-12-22T07:18:37.427Z,11.10
2022-12-22T07:21:12.367Z,14.90
2022-12-22T07:23:41.549Z,10.40
2022-12-22T07:26:15.350Z,11.90
2022-12-22T07:28:43.805Z,12.70
2022-12-22T07:31:12.626Z,11.90
2022-12-22T07:33:41.069Z,13.00
2022-12-22T07:36:16.263Z,12.90
2022-12-22T07:38:48.285Z,12.40
2022-12-22T07:41:37.907Z,14.30
2022-12-22T07:44:06.525Z,13.80
2022-12-22T07:46:37.588Z,12.00
2022-12-22T07:49:26.580Z,12.80
2022-12-22T07:51:58.074Z,13.70
2022-12-22T07:54:28.198Z,15.60
2022-12-22T07:56:56.627Z,15.60
2022-12-22T07:59:25.029Z,17.20
2022-12-22T08:01:53.638Z,15.80
2022-12-22T08:04:26.594Z,12.90
2022-12-22T08:06:55.240Z,12.40
2022-12-22T08:09:23.928Z,12.40
2022-12-22T08:11:52.354Z,10.50
2022-12-22T08:14:21.627Z,11.50
2022-12-22T08:16:50.503Z,12.30
2022-12-22T08:19:19.019Z,12.40
2022-12-22T08:21:53.006Z,12.50
2022-12-22T08:24:22.077Z,11.80
2022-12-22T08:26:56.210Z,13.20
2022-12-22T08:29:29.523Z,11.20
2022-12-22T08:31:58.180Z,13.30
2022-12-22T08:34:27.200Z,13.50
2022-12-22T08:36:59.741Z,14.40
2022-12-22T08:39:33.028Z,14.10
2022-12-22T08:42:04.329Z,14.70
2022-12-22T08:44:33.017Z,12.40
2022-12-22T08:47:01.506Z,11.70
2022-12-22T08:49:29.995Z,11.70
2022-12-22T08:51:58.624Z,13.20
2022-12-22T08:54:27.129Z,11.90
2022-12-22T08:56:56.576Z,12.10
2022-12-22T08:59:25.131Z,15.10
2022-12-22T09:01:53.675Z,11.50
2022-12-22T09:04:26.004Z,13.50
2022-12-22T09:06:54.484Z,11.90
2022-12-22T09:09:22.997Z,13.20
2022-12-22T09:11:51.664Z,12.00
2022-12-22T09:14:20.173Z,14.30
2022-12-22T09:16:48.845Z,12.90
2022-12-22T09:19:17.479Z,13.20
2022-12-22T09:21:46.405Z,11.70
2022-12-22T09:24:15.199Z,12.50
2022-12-22T09:26:43.746Z,11.80
2022-12-22T09:29:12.599Z,12.20
2022-12-22T09:31:42.017Z,11.90
2022-12-22T09:34:16.826Z,12.90
2022-12-22T09:36:47.105Z,13.90
2022-12-22T09:39:16.362Z,13.10
2022-12-22T09:41:53.950Z,12.30
2022-12-22T09:44:28.860Z,11.90
2022-12-22T09:47:01.035Z,14.20
2022-12-22T09:49:30.259Z,13.00
2022-12-22T09:52:01.507Z,14.90
2022-12-22T09:54:30.923Z,12.20
2022-12-22T09:56:59.347Z,12.60
2022-12-22T09:59:29.168Z,14.50
2022-12-22T10:02:11.644Z,15.20
2022-12-22T10:04:55.143Z,13.80
2022-12-22T10:07:34.671Z,14.20
2022-12-22T10:10:19.917Z,9.80
2022-12-22T10:12:50.345Z,15.50
2022-12-22T10:15:21.983Z,16.40
2022-12-22T10:17:54.362Z,17.40
2022-12-22T10:20:26.807Z,17.10
2022-12-22T10:23:00.448Z,16.30
2022-12-22T10:25:45.198Z,15.20
2022-12-22T10:28:31.110Z,15.60
2022-12-22T10:31:17.041Z,15.20
2022-12-22T10:33:48.007Z,22.00
2022-12-22T10:36:26.983Z,17.90
2022-12-22T10:39:51.814Z,20.40
2022-12-22T10:42:20.277Z,20.80
2022-12-22T10:44:52.419Z,17.20
2022-12-22T10:47:24.636Z,23.50
2022-12-22T10:55:20.531Z,20.80
2022-12-22T10:57:50.818Z,22.50
2022-12-22T11:00:30.567Z,18.40
2022-12-22T11:03:02.794Z,18.20
2022-12-22T11:05:32.887Z,17.70
2022-12-22T11:08:19.165Z,17.40
2022-12-22T11:10:47.753Z,17.50
2022-12-22T11:13:46.083Z,18.90
2022-12-22T11:16:20.249Z,20.00
2022-12-22T11:19:08.824Z,19.40
2022-12-22T11:21:50.065Z,18.90
2022-12-22T11:24:40.471Z,21.80
2022-12-22T11:27:47.549Z,17.80
2022-12-22T11:30:33.396Z,18.40
2022-12-22T11:33:23.652Z,20.10
2022-12-22T11:36:05.200Z,22.20
2022-12-22T11:39:08.201Z,19.20
2022-12-22T11:42:01.727Z,17.20
2022-12-22T11:44:53.096Z,17.20
2022-12-22T11:47:28.873Z,22.30
2022-12-22T11:51:05.890Z,19.30
2022-12-22T11:53:36.969Z,21.70
2022-12-22T11:56:24.203Z,18.80
2022-12-22T11:59:17.517Z,22.20
2022-12-22T12:02:12.454Z,23.50
2022-12-22T12:05:23.893Z,25.80
2022-12-22T12:08:02.325Z,22.90
2022-12-22T12:10:39.132Z,22.90
2022-12-22T12:13:38.187Z,23.30
2022-12-22T12:16:35.114Z,20.10
2022-12-22T12:19:28.421Z,20.90
2022-12-22T12:22:00.502Z,22.80
2022-12-22T12:24:50.302Z,19.60
2022-12-22T12:27:50.232Z,22.20
2022-12-22T12:30:38.088Z,21.10
2022-12-22T12:33:36.972Z,17.80
2022-12-22T12:36:31.587Z,17.50
2022-12-22T12:39:31.489Z,19.80
2022-12-22T12:42:09.032Z,21.70
2022-12-22T12:44:39.201Z,21.90
2022-12-22T12:47:28.350Z,18.80
2022-12-22T12:50:26.605Z,18.70
2022-12-22T12:52:57.976Z,19.20
2022-12-22T12:55:34.135Z,19.70
2022-12-22T12:58:04.669Z,20.50
2022-12-22T13:00:39.503Z,21.40
2022-12-22T13:03:25.158Z,16.80
2022-12-22T13:06:04.776Z,20.30
2022-12-22T13:09:39.867Z,21.20
2022-12-22T13:14:57.672Z,22.60
2022-12-22T13:17:40.009Z,19.80
2022-12-22T13:20:16.709Z,17.80
2022-12-22T13:22:46.392Z,18.50
2022-12-22T13:25:19.136Z,16.80
2022-12-22T13:27:49.504Z,22.20
2022-12-22T13:30:21.558Z,18.60
2022-12-22T13:32:50.750Z,21.40
2022-12-22T13:35:37.453Z,17.70
2022-12-22T13:38:28.020Z,19.70
2022-12-22T13:41:01.132Z,23.60
2022-12-22T13:43:32.986Z,20.90
2022-12-22T13:46:03.293Z,20.90
2022-12-22T13:48:44.577Z,20.90
2022-12-22T13:51:18.950Z,22.50
2022-12-22T13:54:26.943Z,20.00
2022-12-22T13:56:57.622Z,21.10
2022-12-22T13:59:34.035Z,21.90
2022-12-22T14:02:15.672Z,19.80
2022-12-22T14:05:03.683Z,20.60
2022-12-22T14:07:32.911Z,19.60
2022-12-22T14:10:01.440Z,19.00
2022-12-22T14:12:40.019Z,22.10
2022-12-22T14:15:17.420Z,23.30
2022-12-22T14:17:52.184Z,24.40
2022-12-22T14:20:28.652Z,21.30
2022-12-22T14:23:22.365Z,24.60
2022-12-22T14:25:52.953Z,25.10
2022-12-22T14:28:28.513Z,21.80
2022-12-22T14:30:59.032Z,26.80
2022-12-22T14:33:31.595Z,21.30
2022-12-22T14:36:23.880Z,22.40
2022-12-22T14:39:00.058Z,24.40
2022-12-22T14:41:42.319Z,20.60
2022-12-22T14:44:13.997Z,18.70
2022-12-22T14:46:44.633Z,25.10
2022-12-22T14:49:17.069Z,23.20
2022-12-22T14:52:03.829Z,23.80
2022-12-22T14:54:32.349Z,26.80
2022-12-22T14:57:16.147Z,20.40
2022-12-22T14:59:59.845Z,22.50
2022-12-22T15:02:50.340Z,19.80
2022-12-22T15:05:27.658Z,20.00
2022-12-22T15:08:07.980Z,25.90
2022-12-22T15:10:43.540Z,21.40
2022-12-22T15:13:24.399Z,20.70
2022-12-22T15:15:53.958Z,19.00
2022-12-22T15:18:27.710Z,19.20
2022-12-22T15:20:57.951Z,18.40
2022-12-22T15:23:26.625Z,18.90
2022-12-22T15:25:55.114Z,23.00
2022-12-22T15:28:24.126Z,19.30
2022-12-22T15:30:53.057Z,20.10
2022-12-22T15:33:21.605Z,22.10
2022-12-22T15:35:51.637Z,21.20
2022-12-22T15:38:23.330Z,23.50
2022-12-22T15:40:52.450Z,23.20
2022-12-22T15:46:17.279Z,24.60
2022-12-22T15:48:46.855Z,22.90
2022-12-22T15:51:24.418Z,23.20
2022-12-22T15:53:54.355Z,20.40
2022-12-22T15:56:25.505Z,37.10
2022-12-22T15:58:54.513Z,47.90
2022-12-22T16:01:23.064Z,43.00
2022-12-22T16:03:52.864Z,30.10
2022-12-22T16:06:21.453Z,36.20
2022-12-22T16:08:53.794Z,20.60
2022-12-22T16:11:22.313Z,20.80
2022-12-22T16:13:52.030Z,23.10
2022-12-22T16:16:20.739Z,25.10
2022-12-22T16:18:49.365Z,21.50
2022-12-22T16:21:24.719Z,23.70
2022-12-22T16:23:55.419Z,26.70
2022-12-22T16:26:24.027Z,22.80
2022-12-22T16:28:52.681Z,27.80
2022-12-22T16:31:24.167Z,26.80
2022-12-22T16:33:52.914Z,23.10
2022-12-22T16:36:21.860Z,26.00
2022-12-22T16:38:50.569Z,22.70
2022-12-22T16:41:24.317Z,32.90
2022-12-22T16:44:05.433Z,19.80
2022-12-22T16:46:39.317Z,13.40
2022-12-22T16:49:09.550Z,15.90
2022-12-22T16:51:47.005Z,26.60
2022-12-22T16:54:16.312Z,20.80
2022-12-22T16:56:47.456Z,16.20
2022-12-22T16:59:17.181Z,19.40
2022-12-22T17:01:56.400Z,16.50
2022-12-22T17:04:30.237Z,22.50
2022-12-22T17:07:01.362Z,17.60
2022-12-22T17:09:43.212Z,21.70
2022-12-22T17:12:19.056Z,18.50
2022-12-22T17:14:49.442Z,23.20
2022-12-22T17:17:30.947Z,18.20
2022-12-22T17:20:02.166Z,20.80
2022-12-22T17:22:34.219Z,18.30
2022-12-22T17:25:06.313Z,16.60
2022-12-22T17:27:35.604Z,18.90
2022-12-22T17:30:04.459Z,18.20
2022-12-22T17:32:33.020Z,21.40
2022-12-22T17:35:03.098Z,20.20
2022-12-22T17:37:32.210Z,23.60
2022-12-22T17:40:02.687Z,21.10
2022-12-22T17:42:33.295Z,22.50
2022-12-22T17:45:02.362Z,24.00
2022-12-22T17:47:36.004Z,26.50
2022-12-22T17:50:14.672Z,24.20
2022-12-22T17:52:45.625Z,20.70
2022-12-22T17:56:06.074Z,22.10
2022-12-22T17:58:17.679Z,19.80
2022-12-22T18:00:46.491Z,18.50
2022-12-22T18:03:15.946Z,22.60
2022-12-22T18:05:47.608Z,21.00
2022-12-22T18:08:20.706Z,21.40
2022-12-22T18:10:49.895Z,20.70
2022-12-22T18:13:27.166Z,20.00
2022-12-22T18:15:56.264Z,21.70
2022-12-22T18:18:24.953Z,19.10
2022-12-22T18:21:06.476Z,23.00
2022-12-22T18:23:38.459Z,23.90
2022-12-22T18:26:10.670Z,20.90
2022-12-22T18:28:39.076Z,21.80
2022-12-22T18:31:07.804Z,20.50
2022-12-22T18:33:36.305Z,20.80
2022-12-22T18:36:05.369Z,20.80
2022-12-22T18:38:36.649Z,19.30
2022-12-22T18:41:05.238Z,20.50
2022-12-22T18:43:33.911Z,22.50
2022-12-22T18:46:02.503Z,23.50
2022-12-22T18:48:31.317Z,22.50
2022-12-22T18:51:00.621Z,22.50
2022-12-22T18:53:31.295Z,19.70
2022-12-22T18:56:04.016Z,21.00
2022-12-22T18:58:32.664Z,20.00
2022-12-22T19:01:04.233Z,23.90
2022-12-22T19:03:34.514Z,22.90
2022-12-22T19:06:03.138Z,24.70
2022-12-22T19:08:31.937Z,23.90
2022-12-22T19:11:05.913Z,21.40
2022-12-22T19:13:40.553Z,24.80
2022-12-22T19:16:15.286Z,24.40
2022-12-22T19:18:45.430Z,23.80
2022-12-22T19:21:16.872Z,26.40
2022-12-22T19:23:48.233Z,24.60
2022-12-22T19:26:25.980Z,28.60
2022-12-22T19:29:01.140Z,24.60
2022-12-22T19:31:33.412Z,27.80
2022-12-22T19:34:07.193Z,29.50
2022-12-22T19:36:36.143Z,31.00
2022-12-22T19:39:06.330Z,31.50
2022-12-22T19:41:56.659Z,30.90
2022-12-22T19:44:27.686Z,28.00
2022-12-22T19:47:00.132Z,28.40
2022-12-22T19:49:29.827Z,27.70
2022-12-22T19:51:58.879Z,27.00
2022-12-22T19:54:28.456Z,30.10
2022-12-22T19:56:57.532Z,30.00
2022-12-22T19:59:48.551Z,31.10
2022-12-22T20:02:39.216Z,26.30
2022-12-22T20:05:38.865Z,25.20
2022-12-22T20:08:07.800Z,28.50
2022-12-22T20:10:38.342Z,27.10
2022-12-22T20:13:22.067Z,26.70
2022-12-22T20:15:50.939Z,28.80
2022-12-22T20:18:22.813Z,27.50
2022-12-22T20:21:00.479Z,28.50
2022-12-22T20:23:33.368Z,25.70
2022-12-22T20:26:06.421Z,26.00
2022-12-22T20:28:39.443Z,17.70
2022-12-22T20:31:11.512Z,22.70
2022-12-22T20:33:46.470Z,21.90
2022-12-22T20:36:28.069Z,23.90
2022-12-22T20:38:58.540Z,22.70
2022-12-22T20:41:28.011Z,20.70
2022-12-22T20:43:57.098Z,20.00
2022-12-22T20:46:28.656Z,16.70
2022-12-22T20:49:03.266Z,16.90
2022-12-22T20:51:34.569Z,18.00
2022-12-22T20:54:02.998Z,19.90
2022-12-22T20:56:34.449Z,18.70
2022-12-22T20:59:16.606Z,17.40
2022-12-22T21:01:47.050Z,16.70
2022-12-22T21:04:17.565Z,15.10
2022-12-22T21:06:50.482Z,16.40
2022-12-22T21:09:19.720Z,17.60
2022-12-22T21:11:48.788Z,11.40
2022-12-22T21:14:17.844Z,14.00
2022-12-22T21:16:46.412Z,15.90
2022-12-22T21:19:18.515Z,12.30
2022-12-22T21:21:47.908Z,11.80
2022-12-22T21:24:16.975Z,11.90
2022-12-22T21:26:52.910Z,11.30
2022-12-22T21:29:25.333Z,10.90
2022-12-22T21:31:54.654Z,12.60
2022-12-22T21:34:23.119Z,12.10
2022-12-22T21:37:00.235Z,11.80
2022-12-22T21:39:37.910Z,11.90
2022-12-22T21:42:08.043Z,11.60
2022-12-22T21:44:36.527Z,13.50
2022-12-22T21:47:05.123Z,15.60
2022-12-22T21:49:34.068Z,14.30
2022-12-22T21:52:02.528Z,14.50
2022-12-22T21:54:30.958Z,13.80
2022-12-22T21:56:59.846Z,14.80
2022-12-22T21:59:28.945Z,13.60
2022-12-22T22:01:58.179Z,12.40
2022-12-22T22:04:45.301Z,15.60
2022-12-22T22:07:18.683Z,14.90
2022-12-22T22:09:47.252Z,15.00
2022-12-22T22:12:33.904Z,14.70
2022-12-22T22:15:04.155Z,12.50
2022-12-22T22:17:32.667Z,15.20
2022-12-22T22:20:01.321Z,13.70
2022-12-22T22:22:29.846Z,13.10
2022-12-22T22:24:58.327Z,11.40
2022-12-22T22:27:26.691Z,11.70
2022-12-22T22:29:55.228Z,11.50
2022-12-22T22:32:23.603Z,12.40
2022-12-22T22:34:52.953Z,12.90
2022-12-22T22:37:21.707Z,11.20
2022-12-22T22:39:50.863Z,13.40
2022-12-22T22:42:19.281Z,11.20
2022-12-22T22:44:47.814Z,10.30
2022-12-22T22:47:16.291Z,12.30
2022-12-22T22:49:44.720Z,12.20
2022-12-22T22:52:13.123Z,12.70
2022-12-22T22:54:41.510Z,13.20
2022-12-22T22:57:09.984Z,15.60
2022-12-22T22:59:38.361Z,14.30
2022-12-22T23:02:06.921Z,12.40
2022-12-22T23:04:35.629Z,14.10
2022-12-22T23:07:04.632Z,13.20
2022-12-22T23:09:33.245Z,14.30
2022-12-22T23:12:01.632Z,14.80
2022-12-22T23:14:30.063Z,13.70
2022-12-22T23:16:58.636Z,11.70
2022-12-22T23:19:27.274Z,14.20
2022-12-22T23:21:56.417Z,10.80
2022-12-22T23:24:24.913Z,13.10
2022-12-22T23:26:53.655Z,13.50
2022-12-22T23:29:22.154Z,13.00
2022-12-22T23:31:50.635Z,15.70
2022-12-22T23:34:19.055Z,14.60
2022-12-22T23:36:47.424Z,15.20
2022-12-22T23:39:15.753Z,15.80
2022-12-22T23:41:44.229Z,14.70
2022-12-22T23:44:12.620Z,13.10
2022-12-22T23:46:41.205Z,13.10
2022-12-22T23:49:12.418Z,15.20
2022-12-22T23:51:40.897Z,13.90
2022-12-22T23:54:09.287Z,17.00
2022-12-22T23:56:38.128Z,12.80
2022-12-22T23:59:06.562Z,14.00
